Newman Lake, WA (99025)

1:14 AM PDT on July 27, 2016 (GMT -0700)
Moab | | Change Station

Elev 2140 ft 47.73 °N, 117.06 °W | Updated 8 minutes ago

Clear
Clear
62.3 °F
Feels Like 62.3 °F
N
2.0
Wind Variable Wind from North
Gusts 6.0 mph

Today
High -- | Low -- °F
--% Chance of Precip.
Yesterday
High -- | Low -- °F
Precip. -- in
Pressure 29.98 in
Visibility 10.0 miles
Clouds Clear
Dew Point 60 °F
Humidity 92%
Rainfall 0.00 in
Snow Depth Not available.
5:19 AM 8:28 PM
Last Quarter, 46% visible
METAR KSFF 270753Z AUTO 00000KT 10SM CLR 18/14 A3002 RMK AO2 SLP150 T01780144 403390156
Pressure 29.98 in
Visibility 10.0 miles
Clouds Clear
Dew Point 60 °F
Humidity 92%
Rainfall 0.00 in
Snow Depth Not available.
5:19 AM 8:28 PM
Last Quarter, 46% visible
METAR KSFF 270753Z AUTO 00000KT 10SM CLR 18/14 A3002 RMK AO2 SLP150 T01780144 403390156

10-Day Weather Forecast

Almanac

Astronomy

Jul. 27, 2016 Rise Set
Actual Time
Civil Twilight
Nautical Twilight
Astronomical Twilight
Moon
Length of Visible Light
Length of Day
Tomorrow will be .
, % of the Moon is Illuminated

Today's Extremes

State Highs State Lows

Community

WunderPhotos

Upload Photos

1,927,818 photos uploaded!

WunderBlog® & News

Nearby

Air Quality

  Air Quality AQ Index Pollutant
Not available.

Snow Depth

Station Depth Elevation

Earthquake Activity

City Distance Mag. Time & Date
Minimum magnitude displayed is 2.5.

Coastal Water Temperatures

Place Temperature

Stations

Nearby Weather Stations

Station Location Temp. Windchill Dew Point Humidity Wind Precip. Elev Updated Type
                   

Watches & Warnings

There are currently no watches in effect.